^^

..:: Storico WU ::..




Lo storico viene creato da WUnderground con i dati che la stazione Meteomincio invia al loro server. L' aggiornamento viene fatto ogni 5 minuti circa, tuttavia possono esserci intervalli pił ampi a causa di errori, interruzioni di servizio o problemi nell' invio tramite FTP.


Storico stazione MeteoMincio
Giorno Sommario per Dicembre 21, 2022 Unità:  Inglese    Metrico   Entrambi
Giorno Settimana Mese Anno
  Max: Min: Media:
Temperatura: 42.8 °F 41 °F 42.3 °F
Dew Point: 42.8 °F 39.2 °F 41.5 °F
Umidità: 100% 93% 96%
Velocità vento: 5mph 0mph 2.1mph
Raffica: 6.8mph - -
Direzione- - WSW
Pressione: 30.3 in 30.1 in -
Precipitazioni: 0.07 in    
 
 
Tabulato Dati per Dicembre 21, 2022
Ora Temperatura Dew Point Pressione Direzione Velocità vento Raffica Umidità Intensità pioggia (oraria) Info solare Situazione
00:04 42.8 °F 41 °F 30.3 in West 2.5 mph 3.7 mph 93% 0 in 0.00 W/m2 unknown
00:09 42.8 °F 41 °F 30.3 in WSW 2.5 mph 3.7 mph 93% 0 in 0.00 W/m2 unknown
00:14 42.8 °F 41 °F 30.3 in West 1.9 mph 3.7 mph 93% 0 in 0.00 W/m2 unknown
00:19 42.8 °F 41 °F 30.3 in West 2.5 mph 3.7 mph 93% 0 in 0.00 W/m2 unknown
00:24 42.8 °F 41 °F 30.3 in West 1.9 mph 3.7 mph 93% 0 in 0.00 W/m2 unknown
00:29 42.8 °F 41 °F 30.3 in West 2.5 mph 3.7 mph 93% 0 in 0.00 W/m2 unknown
00:34 42.8 °F 41 °F 30.3 in West 3.1 mph 3.7 mph 93% 0 in 0.00 W/m2 unknown
00:39 42.8 °F 41 °F 30.3 in West 2.5 mph 3.7 mph 93% 0 in 0.00 W/m2 unknown
00:44 42.8 °F 41 °F 30.3 in WSW 3.7 mph 5 mph 93% 0 in 0.00 W/m2 unknown
00:49 42.8 °F 41 °F 30.3 in West 3.7 mph 5 mph 93% 0 in 0.00 W/m2 unknown
00:54 42.8 °F 41 °F 30.3 in West 3.1 mph 5 mph 93% 0 in 0.00 W/m2 unknown
00:59 42.8 °F 41 °F 30.3 in West 3.1 mph 5 mph 93% 0 in 0.00 W/m2 unknown
01:04 42.8 °F 41 °F 30.3 in West 3.1 mph 3.7 mph 93% 0 in 0.00 W/m2 unknown
01:09 42.8 °F 41 °F 30.3 in West 3.7 mph 5 mph 93% 0 in 0.00 W/m2 unknown
01:14 42.8 °F 41 °F 30.3 in West 3.1 mph 3.7 mph 93% 0 in 0.00 W/m2 unknown
01:19 42.8 °F 41 °F 30.3 in WSW 3.7 mph 5 mph 93% 0 in 0.00 W/m2 unknown
01:24 42.8 °F 41 °F 30.3 in WSW 3.7 mph 5 mph 93% 0 in 0.00 W/m2 unknown
01:29 42.8 °F 41 °F 30.3 in WSW 3.1 mph 5 mph 93% 0 in 0.00 W/m2 unknown
01:34 42.8 °F 41 °F 30.3 in WSW 3.7 mph 5 mph 93% 0 in 0.00 W/m2 unknown
01:39 42.8 °F 41 °F 30.3 in WSW 5 mph 6.2 mph 93% 0 in 0.00 W/m2 unknown
01:44 42.8 °F 41 °F 30.3 in WSW 5 mph 6.2 mph 93% 0 in 0.00 W/m2 unknown
01:49 42.8 °F 41 °F 30.3 in WSW 3.7 mph 5 mph 93% 0 in 0.00 W/m2 unknown
01:54 42.8 °F 41 °F 30.3 in WSW 4.3 mph 6.2 mph 93% 0 in 0.00 W/m2 unknown
01:59 42.8 °F 41 °F 30.3 in WSW 4.3 mph 6.2 mph 93% 0 in 0.00 W/m2 unknown
02:04 42.8 °F 41 °F 30.3 in WSW 3.7 mph 6.2 mph 93% 0 in 0.00 W/m2 unknown
02:09 42.8 °F 41 °F 30.3 in WSW 4.3 mph 6.2 mph 93% 0 in 0.00 W/m2 unknown
02:14 42.8 °F 39.2 °F 30.3 in SW 3.1 mph 6.2 mph 93% 0 in 0.00 W/m2 unknown
02:19 42.8 °F 39.2 °F 30.3 in SW 4.3 mph 6.2 mph 93% 0 in 0.00 W/m2 unknown
02:24 42.8 °F 41 °F 30.3 in SW 3.7 mph 6.2 mph 94% 0 in 0.00 W/m2 unknown
02:29 42.8 °F 41 °F 30.2 in WSW 4.3 mph 6.2 mph 94% 0 in 0.00 W/m2 unknown
02:34 42.8 °F 41 °F 30.2 in WSW 5 mph 6.2 mph 94% 0 in 0.00 W/m2 unknown
02:39 41 °F 39.2 °F 30.2 in WSW 5 mph 6.2 mph 93% 0 in 0.00 W/m2 unknown
02:44 41 °F 39.2 °F 30.2 in SW 3.7 mph 5 mph 94% 0 in 0.00 W/m2 unknown
02:49 41 °F 39.2 °F 30.2 in WSW 4.3 mph 5 mph 94% 0 in 0.00 W/m2 unknown
02:54 41 °F 39.2 °F 30.3 in WSW 5 mph 6.2 mph 94% 0 in 0.00 W/m2 unknown
02:59 41 °F 39.2 °F 30.3 in WSW 5 mph 6.2 mph 94% 0 in 0.00 W/m2 unknown
03:04 41 °F 39.2 °F 30.2 in WSW 3.7 mph 6.2 mph 94% 0 in 0.00 W/m2 unknown
03:09 41 °F 39.2 °F 30.2 in WSW 5 mph 6.8 mph 94% 0 in 0.00 W/m2 unknown
03:14 41 °F 39.2 °F 30.2 in WSW 5 mph 6.8 mph 94% 0 in 0.00 W/m2 unknown
03:19 41 °F 39.2 °F 30.2 in WSW 5 mph 6.8 mph 94% 0 in 0.00 W/m2 unknown
03:24 41 °F 39.2 °F 30.2 in WSW 5 mph 6.8 mph 94% 0 in 0.00 W/m2 unknown
03:29 41 °F 39.2 °F 30.2 in West 4.3 mph 6.2 mph 94% 0 in 0.00 W/m2 unknown
03:34 41 °F 39.2 °F 30.2 in WSW 3.1 mph 6.2 mph 94% 0 in 0.00 W/m2 unknown
03:39 41 °F 39.2 °F 30.2 in WSW 3.1 mph 5 mph 94% 0 in 0.00 W/m2 unknown
03:44 41 °F 39.2 °F 30.2 in WSW 2.5 mph 5 mph 94% 0 in 0.00 W/m2 unknown
03:49 41 °F 39.2 °F 30.2 in WSW 4.3 mph 6.2 mph 94% 0 in 0.00 W/m2 unknown
03:54 41 °F 39.2 °F 30.2 in WSW 3.7 mph 6.2 mph 94% 0 in 0.00 W/m2 unknown
03:59 41 °F 39.2 °F 30.2 in West 3.1 mph 5 mph 94% 0 in 0.00 W/m2 unknown
04:04 41 °F 39.2 °F 30.2 in West 2.5 mph 3.7 mph 95% 0 in 0.00 W/m2 unknown
04:09 41 °F 39.2 °F 30.2 in West 2.5 mph 3.7 mph 95% 0 in 0.00 W/m2 unknown
04:14 41 °F 39.2 °F 30.2 in West 3.1 mph 3.7 mph 95% 0 in 0.00 W/m2 unknown
04:19 41 °F 39.2 °F 30.2 in West 3.1 mph 3.7 mph 95% 0 in 0.00 W/m2 unknown
04:24 41 °F 39.2 °F 30.2 in West 3.1 mph 3.7 mph 95% 0 in 0.00 W/m2 unknown
04:29 41 °F 39.2 °F 30.2 in WSW 2.5 mph 3.7 mph 95% 0 in 0.00 W/m2 unknown
04:34 41 °F 39.2 °F 30.2 in West 1.9 mph 3.7 mph 95% 0.01 in 0.00 W/m2 unknown
04:39 41 °F 39.2 °F 30.2 in West 2.5 mph 3.7 mph 95% 0.01 in 0.00 W/m2 unknown
04:44 41 °F 39.2 °F 30.2 in West 1.9 mph 3.7 mph 95% 0.01 in 0.00 W/m2 unknown
04:49 41 °F 39.2 °F 30.2 in West 3.7 mph 3.7 mph 95% 0.01 in 0.00 W/m2 unknown
04:54 41 °F 39.2 °F 30.2 in West 3.1 mph 3.7 mph 95% 0.01 in 0.00 W/m2 unknown
04:59 41 °F 39.2 °F 30.2 in WNW 3.1 mph 3.7 mph 95% 0.01 in 0.00 W/m2 unknown
05:04 41 °F 39.2 °F 30.2 in WNW 3.1 mph 3.7 mph 95% 0.02 in 0.00 W/m2 unknown
05:09 41 °F 39.2 °F 30.2 in WNW 3.7 mph 5 mph 95% 0.02 in 0.00 W/m2 unknown
05:14 41 °F 39.2 °F 30.2 in WNW 3.1 mph 5 mph 95% 0.02 in 0.00 W/m2 unknown
05:19 41 °F 39.2 °F 30.2 in West 2.5 mph 3.7 mph 95% 0.02 in 0.00 W/m2 unknown
05:24 41 °F 39.2 °F 30.2 in West 2.5 mph 3.7 mph 95% 0.02 in 0.00 W/m2 unknown
05:29 41 °F 39.2 °F 30.2 in West 2.5 mph 3.7 mph 95% 0.02 in 0.00 W/m2 unknown
05:34 41 °F 39.2 °F 30.2 in West 2.5 mph 3.7 mph 95% 0.02 in 0.00 W/m2 unknown
05:39 41 °F 39.2 °F 30.2 in West 1.9 mph 3.7 mph 95% 0.02 in 0.00 W/m2 unknown
05:44 41 °F 39.2 °F 30.2 in WSW 1.9 mph 3.7 mph 95% 0.02 in 0.00 W/m2 unknown
05:49 41 °F 39.2 °F 30.2 in WNW 0.6 mph 3.1 mph 95% 0.02 in 0.00 W/m2 unknown
05:54 41 °F 39.2 °F 30.2 in West 1.9 mph 2.5 mph 95% 0.02 in 0.00 W/m2 unknown
05:59 41 °F 39.2 °F 30.2 in WSW 1.9 mph 3.7 mph 95% 0.02 in 0.00 W/m2 unknown
06:04 41 °F 39.2 °F 30.2 in WSW 1.9 mph 3.1 mph 95% 0.02 in 0.00 W/m2 unknown
06:09 41 °F 39.2 °F 30.2 in WSW 3.1 mph 3.7 mph 95% 0.02 in 0.00 W/m2 unknown
06:14 41 °F 39.2 °F 30.2 in West 2.5 mph 3.7 mph 95% 0.02 in 0.00 W/m2 unknown
06:19 41 °F 39.2 °F 30.2 in West 3.1 mph 3.7 mph 95% 0.01 in 0.00 W/m2 unknown
06:24 41 °F 39.2 °F 30.2 in West 2.5 mph 3.7 mph 95% 0.01 in 0.00 W/m2 unknown
06:29 41 °F 39.2 °F 30.2 in WNW 2.5 mph 3.7 mph 95% 0.01 in 0.00 W/m2 unknown
06:34 41 °F 41 °F 30.2 in West 3.1 mph 3.7 mph 95% 0.01 in 0.00 W/m2 unknown
06:39 41 °F 41 °F 30.2 in West 2.5 mph 3.7 mph 95% 0.01 in 0.00 W/m2 unknown
06:44 41 °F 41 °F 30.2 in West 2.5 mph 3.7 mph 95% 0.01 in 0.00 W/m2 unknown
06:49 41 °F 41 °F 30.2 in WSW 3.1 mph 3.7 mph 95% 0.02 in 0.00 W/m2 unknown
06:54 41 °F 41 °F 30.2 in WSW 3.1 mph 3.7 mph 95% 0.02 in 0.00 W/m2 unknown
06:59 41 °F 41 °F 30.2 in WSW 1.2 mph 3.7 mph 95% 0.02 in 0.00 W/m2 unknown
07:04 41 °F 41 °F 30.2 in WSW 2.5 mph 3.7 mph 95% 0.01 in 0.00 W/m2 unknown
07:09 41 °F 41 °F 30.2 in WSW 1.2 mph 3.7 mph 95% 0.01 in 0.00 W/m2 unknown
07:14 41 °F 41 °F 30.2 in WSW 1.2 mph 1.9 mph 95% 0.01 in 0.00 W/m2 unknown
07:19 41 °F 41 °F 30.2 in SW 1.9 mph 3.7 mph 96% 0.01 in 0.00 W/m2 unknown
07:24 41 °F 41 °F 30.2 in WSW 1.9 mph 3.1 mph 96% 0.01 in 0.00 W/m2 unknown
07:29 41 °F 41 °F 30.2 in WSW 2.5 mph 3.7 mph 96% 0.01 in 0.00 W/m2 unknown
07:34 41 °F 41 °F 30.2 in WSW 1.9 mph 3.1 mph 96% 0.01 in 0.00 W/m2 unknown
07:39 41 °F 41 °F 30.2 in WSW 2.5 mph 3.7 mph 96% 0.01 in 0.00 W/m2 unknown
07:44 41 °F 41 °F 30.2 in WSW 3.7 mph 5 mph 96% 0.01 in 0.00 W/m2 unknown
07:49 41 °F 41 °F 30.2 in WSW 3.7 mph 5 mph 96% 0.01 in 0.00 W/m2 unknown
07:54 41 °F 41 °F 30.2 in WSW 3.7 mph 5 mph 96% 0.01 in 0.00 W/m2 unknown
07:59 41 °F 41 °F 30.2 in WSW 2.5 mph 5 mph 96% 0.01 in 0.00 W/m2 unknown
08:04 41 °F 41 °F 30.2 in SW 3.1 mph 3.7 mph 96% 0 in 0.00 W/m2 unknown
08:09 41 °F 41 °F 30.2 in SW 1.9 mph 3.7 mph 96% 0 in 0.00 W/m2 unknown
08:14 41 °F 41 °F 30.2 in SW 1.9 mph 3.1 mph 96% 0 in 0.00 W/m2 unknown
08:19 41 °F 41 °F 30.2 in SW 3.1 mph 5 mph 96% 0 in 0.00 W/m2 unknown
08:24 41 °F 41 °F 30.2 in SW 3.1 mph 5 mph 96% 0 in 0.00 W/m2 unknown
08:29 41 °F 41 °F 30.2 in WSW 3.7 mph 5 mph 100% 0 in 0.00 W/m2 unknown
08:34 41 °F 41 °F 30.2 in WSW 3.1 mph 5 mph 100% 0 in 0.00 W/m2 unknown
08:39 41 °F 41 °F 30.2 in SW 2.5 mph 3.7 mph 96% 0 in 0.00 W/m2 unknown
08:44 41 °F 41 °F 30.2 in WSW 2.5 mph 3.7 mph 100% 0 in 7.00 W/m2 unknown
08:49 41 °F 41 °F 30.2 in WSW 3.1 mph 3.7 mph 100% 0 in 5.00 W/m2 unknown
08:54 41 °F 41 °F 30.2 in SW 2.5 mph 3.7 mph 100% 0 in 7.00 W/m2 unknown
08:59 41 °F 41 °F 30.2 in WSW 1.9 mph 3.7 mph 100% 0 in 7.00 W/m2 unknown
09:04 41 °F 41 °F 30.2 in SW 3.1 mph 3.7 mph 98% 0 in 9.00 W/m2 unknown
09:09 41 °F 41 °F 30.2 in WSW 3.1 mph 3.7 mph 96% 0 in 11.00 W/m2 unknown
09:14 41 °F 41 °F 30.2 in WSW 3.1 mph 3.7 mph 96% 0 in 14.00 W/m2 unknown
09:19 41 °F 41 °F 30.2 in WSW 3.1 mph 3.7 mph 96% 0 in 16.00 W/m2 unknown
09:24 41 °F 41 °F 30.2 in WSW 1.9 mph 3.1 mph 96% 0 in 16.00 W/m2 unknown
09:29 41 °F 41 °F 30.2 in West 1.9 mph 3.7 mph 96% 0 in 14.00 W/m2 unknown
09:34 41 °F 41 °F 30.2 in West 1.9 mph 3.7 mph 96% 0 in 14.00 W/m2 unknown
09:39 41 °F 41 °F 30.2 in West 1.9 mph 3.7 mph 96% 0 in 16.00 W/m2 unknown
09:44 41 °F 41 °F 30.2 in WSW 3.1 mph 3.7 mph 96% 0.01 in 18.00 W/m2 unknown
09:49 42.8 °F 41 °F 30.2 in WSW 2.5 mph 3.7 mph 96% 0.01 in 21.00 W/m2 unknown
09:54 42.8 °F 41 °F 30.2 in West 1.9 mph 3.7 mph 96% 0.01 in 23.00 W/m2 unknown
09:59 42.8 °F 41 °F 30.2 in West 1.9 mph 3.7 mph 96% 0.01 in 25.00 W/m2 unknown
10:04 42.8 °F 41 °F 30.2 in West 1.2 mph 3.1 mph 96% 0.01 in 25.00 W/m2 unknown
10:09 42.8 °F 41 °F 30.2 in West 1.2 mph 2.5 mph 96% 0.01 in 26.00 W/m2 unknown
10:14 42.8 °F 41 °F 30.2 in West 1.2 mph 2.5 mph 96% 0.01 in 26.00 W/m2 unknown
10:19 42.8 °F 41 °F 30.2 in West 1.2 mph 2.5 mph 96% 0.01 in 26.00 W/m2 unknown
10:24 42.8 °F 41 °F 30.2 in West 1.2 mph 2.5 mph 96% 0.01 in 37.00 W/m2 unknown
10:29 42.8 °F 41 °F 30.2 in WSW 1.9 mph 2.5 mph 96% 0.02 in 37.00 W/m2 unknown
10:34 42.8 °F 41 °F 30.2 in WSW 1.9 mph 2.5 mph 96% 0.02 in 30.00 W/m2 unknown
10:39 42.8 °F 41 °F 30.2 in WSW 1.9 mph 2.5 mph 96% 0.02 in 30.00 W/m2 unknown
10:44 42.8 °F 41 °F 30.2 in WSW 1.9 mph 3.7 mph 96% 0.02 in 32.00 W/m2 unknown
10:49 42.8 °F 41 °F 30.2 in WSW 0.6 mph 2.5 mph 96% 0.02 in 42.00 W/m2 unknown
10:54 42.8 °F 41 °F 30.2 in WSW 1.9 mph 2.5 mph 96% 0.02 in 42.00 W/m2 unknown
10:59 42.8 °F 41 °F 30.2 in WSW 2.5 mph 3.7 mph 96% 0.01 in 37.00 W/m2 unknown
11:04 42.8 °F 41 °F 30.2 in WSW 2.5 mph 3.7 mph 96% 0.01 in 39.00 W/m2 unknown
11:09 42.8 °F 41 °F 30.2 in WSW 2.5 mph 3.7 mph 96% 0.01 in 35.00 W/m2 unknown
11:14 42.8 °F 41 °F 30.2 in WSW 1.9 mph 3.1 mph 96% 0.01 in 49.00 W/m2 unknown
11:19 42.8 °F 41 °F 30.2 in WSW 2.5 mph 3.7 mph 96% 0.01 in 54.00 W/m2 unknown
11:24 42.8 °F 41 °F 30.2 in WSW 2.5 mph 3.7 mph 96% 0.01 in 44.00 W/m2 unknown
11:29 42.8 °F 41 °F 30.2 in West 2.5 mph 3.7 mph 96% 0.01 in 51.00 W/m2 unknown
11:34 42.8 °F 41 °F 30.2 in WSW 2.5 mph 3.7 mph 96% 0.02 in 51.00 W/m2 unknown
11:39 42.8 °F 41 °F 30.2 in WSW 2.5 mph 3.7 mph 96% 0.02 in 46.00 W/m2 unknown
11:44 42.8 °F 41 °F 30.2 in WSW 3.1 mph 3.7 mph 96% 0.01 in 35.00 W/m2 unknown
11:49 42.8 °F 41 °F 30.2 in West 1.9 mph 3.7 mph 96% 0.01 in 33.00 W/m2 unknown
11:54 42.8 °F 41 °F 30.2 in WSW 2.5 mph 3.7 mph 96% 0.01 in 39.00 W/m2 unknown
11:59 42.8 °F 41 °F 30.2 in West 2.5 mph 3.7 mph 96% 0.01 in 37.00 W/m2 unknown
12:04 42.8 °F 41 °F 30.2 in West 2.5 mph 3.7 mph 96% 0.01 in 42.00 W/m2 unknown
12:09 42.8 °F 41 °F 30.2 in West 1.9 mph 3.1 mph 96% 0.01 in 58.00 W/m2 unknown
12:14 42.8 °F 41 °F 30.2 in West 1.2 mph 2.5 mph 96% 0.01 in 51.00 W/m2 unknown
12:19 42.8 °F 41 °F 30.2 in West 1.2 mph 3.1 mph 96% 0.01 in 44.00 W/m2 unknown
12:24 42.8 °F 41 °F 30.2 in WSW 1.9 mph 3.7 mph 96% 0.01 in 33.00 W/m2 unknown
12:29 42.8 °F 41 °F 30.2 in WSW 1.9 mph 3.7 mph 96% 0.01 in 35.00 W/m2 unknown
12:34 42.8 °F 41 °F 30.2 in WSW 1.9 mph 3.7 mph 96% 0.01 in 35.00 W/m2 unknown
12:39 42.8 °F 41 °F 30.2 in WSW 1.9 mph 3.1 mph 96% 0.01 in 32.00 W/m2 unknown
12:44 42.8 °F 41 °F 30.2 in WSW 1.9 mph 3.7 mph 96% 0.01 in 28.00 W/m2 unknown
12:49 42.8 °F 41 °F 30.2 in WSW 2.5 mph 3.7 mph 96% 0.01 in 25.00 W/m2 unknown
12:54 42.8 °F 41 °F 30.2 in WSW 2.5 mph 3.7 mph 96% 0.01 in 25.00 W/m2 unknown
12:59 42.8 °F 41 °F 30.2 in SW 2.5 mph 3.7 mph 96% 0.01 in 30.00 W/m2 unknown
13:04 42.8 °F 41 °F 30.2 in SSW 1.9 mph 3.1 mph 96% 0.01 in 33.00 W/m2 unknown
13:09 42.8 °F 41 °F 30.2 in WSW 1.9 mph 3.7 mph 96% 0.01 in 32.00 W/m2 unknown
13:14 42.8 °F 41 °F 30.2 in WSW 1.9 mph 3.7 mph 96% 0.01 in 28.00 W/m2 unknown
13:19 42.8 °F 42.8 °F 30.2 in SW 1.9 mph 3.7 mph 96% 0.01 in 26.00 W/m2 unknown
13:24 42.8 °F 42.8 °F 30.2 in SSW 1.9 mph 3.7 mph 96% 0.01 in 25.00 W/m2 unknown
13:29 42.8 °F 42.8 °F 30.2 in SW 2.5 mph 3.7 mph 96% 0.01 in 25.00 W/m2 unknown
13:34 42.8 °F 42.8 °F 30.1 in SW 2.5 mph 3.7 mph 96% 0.01 in 25.00 W/m2 unknown
13:39 42.8 °F 42.8 °F 30.1 in SSW 2.5 mph 3.7 mph 96% 0.01 in 26.00 W/m2 unknown
13:44 42.8 °F 42.8 °F 30.1 in SSW 1.9 mph 3.7 mph 96% 0.01 in 30.00 W/m2 unknown
13:49 42.8 °F 42.8 °F 30.1 in SSW 1.2 mph 3.1 mph 96% 0.01 in 35.00 W/m2 unknown
13:54 42.8 °F 42.8 °F 30.1 in SW 1.9 mph 2.5 mph 96% 0.01 in 35.00 W/m2 unknown
13:59 42.8 °F 42.8 °F 30.1 in SW 1.9 mph 3.1 mph 96% 0.01 in 30.00 W/m2 unknown
14:04 42.8 °F 42.8 °F 30.1 in WSW 1.9 mph 3.7 mph 96% 0.01 in 30.00 W/m2 unknown
14:09 42.8 °F 42.8 °F 30.1 in WSW 2.5 mph 3.7 mph 96% 0 in 25.00 W/m2 unknown
14:14 42.8 °F 42.8 °F 30.1 in SW 2.5 mph 3.7 mph 96% 0 in 21.00 W/m2 unknown
14:19 42.8 °F 42.8 °F 30.1 in SW 2.5 mph 3.7 mph 96% 0 in 30.00 W/m2 unknown
14:24 42.8 °F 42.8 °F 30.1 in SW 2.5 mph 3.7 mph 96% 0 in 42.00 W/m2 unknown
14:29 42.8 °F 42.8 °F 30.1 in WSW 1.9 mph 3.1 mph 96% 0 in 44.00 W/m2 unknown
14:34 42.8 °F 42.8 °F 30.1 in WSW 2.5 mph 3.7 mph 96% 0 in 46.00 W/m2 unknown
14:39 42.8 °F 42.8 °F 30.1 in WSW 2.5 mph 3.7 mph 96% 0 in 35.00 W/m2 unknown
14:44 42.8 °F 42.8 °F 30.1 in WSW 1.9 mph 3.7 mph 96% 0 in 32.00 W/m2 unknown
14:49 42.8 °F 42.8 °F 30.1 in WSW 2.5 mph 3.7 mph 96% 0 in 28.00 W/m2 unknown
14:54 42.8 °F 42.8 °F 30.1 in WSW 2.5 mph 3.7 mph 96% 0 in 21.00 W/m2 unknown
14:59 42.8 °F 42.8 °F 30.1 in WSW 1.9 mph 3.1 mph 96% 0 in 25.00 W/m2 unknown
15:04 42.8 °F 42.8 °F 30.1 in WSW 1.2 mph 2.5 mph 96% 0 in 25.00 W/m2 unknown
15:09 42.8 °F 42.8 °F 30.1 in WSW 3.1 mph 3.7 mph 96% 0 in 18.00 W/m2 unknown
15:14 42.8 °F 42.8 °F 30.1 in WSW 3.7 mph 3.7 mph 96% 0 in 9.00 W/m2 unknown
15:19 42.8 °F 42.8 °F 30.1 in West 1.9 mph 3.7 mph 96% 0 in 7.00 W/m2 unknown
15:24 42.8 °F 42.8 °F 30.1 in WSW 1.9 mph 3.7 mph 96% 0 in 5.00 W/m2 unknown
15:29 42.8 °F 42.8 °F 30.1 in West 1.9 mph 3.1 mph 96% 0 in 5.00 W/m2 unknown
15:34 42.8 °F 42.8 °F 30.1 in WSW 1.9 mph 3.7 mph 96% 0 in 5.00 W/m2 unknown
15:39 42.8 °F 42.8 °F 30.1 in West 0.6 mph 2.5 mph 96% 0 in 5.00 W/m2 unknown
15:44 42.8 °F 42.8 °F 30.1 in West 1.2 mph 2.5 mph 96% 0 in 5.00 W/m2 unknown
15:49 42.8 °F 42.8 °F 30.1 in West 1.2 mph 2.5 mph 96% 0 in 7.00 W/m2 unknown
15:54 42.8 °F 42.8 °F 30.1 in West 1.2 mph 1.9 mph 96% 0 in 5.00 W/m2 unknown
15:59 42.8 °F 42.8 °F 30.1 in West 1.2 mph 2.5 mph 96% 0 in 5.00 W/m2 unknown
16:04 42.8 °F 42.8 °F 30.1 in West 1.9 mph 2.5 mph 96% 0 in 5.00 W/m2 unknown
16:09 42.8 °F 42.8 °F 30.1 in West 1.2 mph 2.5 mph 96% 0 in 5.00 W/m2 unknown
16:14 42.8 °F 42.8 °F 30.1 in West 1.2 mph 2.5 mph 96% 0 in 5.00 W/m2 unknown
16:19 42.8 °F 42.8 °F 30.1 in West 1.2 mph 2.5 mph 96% 0 in 0.00 W/m2 unknown
16:24 42.8 °F 42.8 °F 30.1 in West 1.2 mph 2.5 mph 96% 0 in 0.00 W/m2 unknown
16:28 42.8 °F 42.8 °F 30.1 in West 0.6 mph 2.5 mph 96% 0 in 0.00 W/m2 unknown
16:32 42.8 °F 42.8 °F 30.1 in West 0.6 mph 3.1 mph 96% 0 in 0.00 W/m2 unknown
16:39 42.8 °F 42.8 °F 30.1 in WNW 1.9 mph 3.7 mph 96% 0 in 0.00 W/m2 unknown
16:44 42.8 °F 42.8 °F 30.1 in WNW 1.9 mph 3.7 mph 96% 0 in 0.00 W/m2 unknown
16:49 42.8 °F 42.8 °F 30.1 in West 1.9 mph 3.7 mph 96% 0 in 0.00 W/m2 unknown
16:54 42.8 °F 42.8 °F 30.1 in West 1.2 mph 2.5 mph 96% 0 in 0.00 W/m2 unknown
16:59 42.8 °F 42.8 °F 30.1 in West 1.2 mph 2.5 mph 96% 0 in 0.00 W/m2 unknown
17:04 42.8 °F 42.8 °F 30.1 in West 1.2 mph 2.5 mph 96% 0 in 0.00 W/m2 unknown
17:09 42.8 °F 42.8 °F 30.1 in West 1.2 mph 2.5 mph 96% 0 in 0.00 W/m2 unknown
17:14 42.8 °F 42.8 °F 30.1 in West 1.2 mph 2.5 mph 96% 0 in 0.00 W/m2 unknown
17:19 42.8 °F 42.8 °F 30.1 in West 1.2 mph 2.5 mph 96% 0 in 0.00 W/m2 unknown
17:24 42.8 °F 42.8 °F 30.1 in West 1.2 mph 2.5 mph 96% 0 in 0.00 W/m2 unknown
17:29 42.8 °F 42.8 °F 30.1 in West 1.2 mph 2.5 mph 96% 0 in 0.00 W/m2 unknown
17:34 42.8 °F 42.8 °F 30.1 in West 1.9 mph 2.5 mph 96% 0 in 0.00 W/m2 unknown
17:39 42.8 °F 42.8 °F 30.1 in West 1.9 mph 2.5 mph 96% 0 in 0.00 W/m2 unknown
17:44 42.8 °F 42.8 °F 30.1 in West 1.2 mph 2.5 mph 96% 0 in 0.00 W/m2 unknown
17:49 42.8 °F 42.8 °F 30.1 in West 1.9 mph 2.5 mph 96% 0 in 0.00 W/m2 unknown
17:54 42.8 °F 42.8 °F 30.1 in West 1.9 mph 2.5 mph 96% 0 in 0.00 W/m2 unknown
17:59 42.8 °F 42.8 °F 30.1 in West 1.2 mph 2.5 mph 96% 0 in 0.00 W/m2 unknown
18:04 42.8 °F 42.8 °F 30.1 in WSW 1.2 mph 2.5 mph 96% 0 in 0.00 W/m2 unknown
18:09 42.8 °F 42.8 °F 30.1 in WSW 1.2 mph 2.5 mph 96% 0 in 0.00 W/m2 unknown
18:14 42.8 °F 42.8 °F 30.1 in WSW 1.2 mph 2.5 mph 96% 0 in 0.00 W/m2 unknown
18:19 42.8 °F 42.8 °F 30.1 in WSW 1.2 mph 2.5 mph 96% 0 in 0.00 W/m2 unknown
18:24 42.8 °F 42.8 °F 30.1 in WSW 1.9 mph 3.7 mph 96% 0 in 0.00 W/m2 unknown
18:29 42.8 °F 42.8 °F 30.1 in SW 1.2 mph 3.1 mph 96% 0 in 0.00 W/m2 unknown
18:34 42.8 °F 42.8 °F 30.1 in SW 2.5 mph 3.7 mph 96% 0 in 0.00 W/m2 unknown
18:39 42.8 °F 42.8 °F 30.1 in SW 1.2 mph 1.9 mph 96% 0 in 0.00 W/m2 unknown
18:44 42.8 °F 42.8 °F 30.1 in SW 1.2 mph 2.5 mph 96% 0 in 0.00 W/m2 unknown
18:49 42.8 °F 42.8 °F 30.1 in SW 1.9 mph 2.5 mph 96% 0 in 0.00 W/m2 unknown
18:54 42.8 °F 42.8 °F 30.1 in SW 1.2 mph 2.5 mph 96% 0 in 0.00 W/m2 unknown
18:59 42.8 °F 42.8 °F 30.1 in SW 1.2 mph 2.5 mph 96% 0 in 0.00 W/m2 unknown
19:04 42.8 °F 42.8 °F 30.1 in SW 0.6 mph 1.9 mph 96% 0 in 0.00 W/m2 unknown
19:09 42.8 °F 42.8 °F 30.1 in SW 0.6 mph 1.2 mph 96% 0 in 0.00 W/m2 unknown
19:14 42.8 °F 42.8 °F 30.1 in SW 0.6 mph 1.2 mph 96% 0 in 0.00 W/m2 unknown
19:19 42.8 °F 42.8 °F 30.1 in SW 1.2 mph 1.9 mph 96% 0 in 0.00 W/m2 unknown
19:24 42.8 °F 42.8 °F 30.1 in SW 1.2 mph 2.5 mph 96% 0 in 0.00 W/m2 unknown
19:29 42.8 °F 42.8 °F 30.1 in Calm   1.9 mph 96% 0 in 0.00 W/m2 unknown
19:34 42.8 °F 42.8 °F 30.1 in Calm   1.2 mph 96% 0 in 0.00 W/m2 unknown
19:39 42.8 °F 42.8 °F 30.1 in Calm   1.2 mph 96% 0 in 0.00 W/m2 unknown
19:44 42.8 °F 42.8 °F 30.1 in SW 1.2 mph 2.5 mph 96% 0 in 0.00 W/m2 unknown
19:49 42.8 °F 42.8 °F 30.1 in SW 1.9 mph 2.5 mph 96% 0 in 0.00 W/m2 unknown
19:54 42.8 °F 42.8 °F 30.1 in SW 0.6 mph 1.9 mph 96% 0 in 0.00 W/m2 unknown
19:59 42.8 °F 42.8 °F 30.1 in SW 1.2 mph 1.9 mph 96% 0 in 0.00 W/m2 unknown
20:04 42.8 °F 42.8 °F 30.1 in WNW 1.2 mph 2.5 mph 96% 0 in 0.00 W/m2 unknown
20:09 42.8 °F 42.8 °F 30.1 in WNW 1.2 mph 2.5 mph 96% 0 in 0.00 W/m2 unknown
20:14 42.8 °F 42.8 °F 30.1 in WNW 0.6 mph 2.5 mph 96% 0 in 0.00 W/m2 unknown
20:19 42.8 °F 42.8 °F 30.1 in Calm   1.9 mph 96% 0 in 0.00 W/m2 unknown
20:24 42.8 °F 42.8 °F 30.1 in Calm     96% 0 in 0.00 W/m2 unknown
20:29 42.8 °F 42.8 °F 30.1 in Calm     96% 0 in 0.00 W/m2 unknown
20:34 42.8 °F 42.8 °F 30.1 in Calm     96% 0 in 0.00 W/m2 unknown
20:39 42.8 °F 42.8 °F 30.1 in Calm     96% 0 in 0.00 W/m2 unknown
20:44 42.8 °F 42.8 °F 30.1 in Calm     96% 0 in 0.00 W/m2 unknown
20:49 42.8 °F 42.8 °F 30.1 in Calm     96% 0 in 0.00 W/m2 unknown
20:54 42.8 °F 42.8 °F 30.1 in Calm     96% 0 in 0.00 W/m2 unknown
20:59 42.8 °F 42.8 °F 30.1 in Calm     96% 0 in 0.00 W/m2 unknown
21:04 42.8 °F 42.8 °F 30.1 in Calm     96% 0 in 0.00 W/m2 unknown
21:09 42.8 °F 42.8 °F 30.1 in Calm     96% 0 in 0.00 W/m2 unknown
21:14 42.8 °F 42.8 °F 30.1 in Calm     96% 0 in 0.00 W/m2 unknown
21:19 42.8 °F 42.8 °F 30.1 in Calm     96% 0 in 0.00 W/m2 unknown
21:24 42.8 °F 42.8 °F 30.1 in Calm     96% 0 in 0.00 W/m2 unknown
21:29 42.8 °F 42.8 °F 30.1 in Calm     96% 0 in 0.00 W/m2 unknown
21:34 42.8 °F 42.8 °F 30.1 in Calm     96% 0 in 0.00 W/m2 unknown
21:39 42.8 °F 42.8 °F 30.1 in Calm     96% 0 in 0.00 W/m2 unknown
21:44 42.8 °F 42.8 °F 30.1 in Calm     96% 0 in 0.00 W/m2 unknown
21:49 42.8 °F 42.8 °F 30.1 in Calm     96% 0 in 0.00 W/m2 unknown
21:54 42.8 °F 42.8 °F 30.1 in West 1.9 mph 3.7 mph 96% 0 in 0.00 W/m2 unknown
21:59 42.8 °F 42.8 °F 30.1 in West 2.5 mph 3.7 mph 96% 0 in 0.00 W/m2 unknown
22:04 42.8 °F 42.8 °F 30.1 in WSW 1.9 mph 3.1 mph 96% 0 in 0.00 W/m2 unknown
22:09 42.8 °F 42.8 °F 30.1 in WSW 2.5 mph 3.7 mph 96% 0 in 0.00 W/m2 unknown
22:14 42.8 °F 42.8 °F 30.1 in WSW 2.5 mph 3.7 mph 96% 0 in 0.00 W/m2 unknown
22:19 42.8 °F 42.8 °F 30.1 in WSW 2.5 mph 3.7 mph 96% 0 in 0.00 W/m2 unknown
22:24 42.8 °F 42.8 °F 30.1 in WSW 2.5 mph 3.7 mph 96% 0 in 0.00 W/m2 unknown
22:29 42.8 °F 42.8 °F 30.1 in WSW 1.9 mph 3.7 mph 96% 0 in 0.00 W/m2 unknown
22:34 42.8 °F 42.8 °F 30.1 in WSW 3.1 mph 3.7 mph 96% 0 in 0.00 W/m2 unknown
22:39 42.8 °F 42.8 °F 30.1 in West 3.1 mph 3.7 mph 96% 0 in 0.00 W/m2 unknown
22:44 42.8 °F 42.8 °F 30.1 in WSW 1.9 mph 3.7 mph 96% 0 in 0.00 W/m2 unknown
22:49 42.8 °F 42.8 °F 30.1 in SW 1.9 mph 3.7 mph 96% 0 in 0.00 W/m2 unknown
22:54 42.8 °F 42.8 °F 30.1 in SW 1.2 mph 3.1 mph 96% 0 in 0.00 W/m2 unknown
22:59 42.8 °F 42.8 °F 30.1 in SW 1.9 mph 3.7 mph 96% 0 in 0.00 W/m2 unknown
23:04 42.8 °F 42.8 °F 30.1 in SW 1.9 mph 3.1 mph 96% 0.01 in 0.00 W/m2 unknown
23:09 42.8 °F 42.8 °F 30.1 in SW 1.9 mph 2.5 mph 96% 0.01 in 0.00 W/m2 unknown
23:14 42.8 °F 42.8 °F 30.1 in SW 1.9 mph 2.5 mph 96% 0.01 in 0.00 W/m2 unknown
23:19 42.8 °F 42.8 °F 30.1 in SW 1.2 mph 2.5 mph 96% 0.01 in 0.00 W/m2 unknown
23:24 42.8 °F 42.8 °F 30.1 in SW 1.2 mph 2.5 mph 96% 0.01 in 0.00 W/m2 unknown
23:29 42.8 °F 42.8 °F 30.1 in SW 1.9 mph 2.5 mph 96% 0.01 in 0.00 W/m2 unknown
23:34 42.8 °F 42.8 °F 30.1 in SW 1.2 mph 1.9 mph 97% 0.01 in 0.00 W/m2 unknown
23:39 42.8 °F 42.8 °F 30.1 in SW 1.2 mph 1.2 mph 96% 0.01 in 0.00 W/m2 unknown
23:44 42.8 °F 42.8 °F 30.1 in Calm   1.2 mph 97% 0.01 in 0.00 W/m2 unknown
23:49 42.8 °F 42.8 °F 30.1 in Calm   1.2 mph 97% 0.01 in 0.00 W/m2 unknown
23:54 42.8 °F 42.8 °F 30.1 in Calm     97% 0.01 in 0.00 W/m2 unknown
23:59 42.8 °F 42.8 °F 30.1 in Calm     97% 0.01 in 0.00 W/m2 unknown
Stazione Meteorologica MeteoMincio Rivalta s/M (MN)
Con i complimenti di Weather Underground - 4 mb



METEO PILLOLE
Il ciclone tropicale di maggiore durata
Oceano Pacifico
Il sistema di tempeste battezzato John percorre in lungo e in largo il Pacifico per ben 31 giorni, tra l'agosto e il settembre 1994.
Share

Non seguire questo link o sarai bannato dal sito!